sensor_id;sensor_type;location;lat;lon;timestamp;pressure;altitude;pressure_sealevel;temperature;humidity
37648;BME280;23490;53.656;10.076;2023-11-22T00:02:19;99950.88;;;-145.95;100.00
37648;BME280;23490;53.656;10.076;2023-11-22T00:04:45;99901.31;;;-145.95;100.00
37648;BME280;23490;53.656;10.076;2023-11-22T00:07:11;99932.28;;;-145.95;100.00
37648;BME280;23490;53.656;10.076;2023-11-22T00:09:36;99924.03;;;-145.95;100.00
37648;BME280;23490;53.656;10.076;2023-11-22T00:12:03;99924.03;;;-145.95;100.00
37648;BME280;23490;53.656;10.076;2023-11-22T00:14:28;99899.22;;;-145.95;100.00
37648;BME280;23490;53.656;10.076;2023-11-22T00:16:54;99938.47;;;-145.95;100.00
37648;BME280;23490;53.656;10.076;2023-11-22T00:19:19;99905.44;;;-145.95;100.00
37648;BME280;23490;53.656;10.076;2023-11-22T00:21:47;99905.44;;;-145.95;100.00
37648;BME280;23490;53.656;10.076;2023-11-22T00:24:13;99897.16;;;-145.95;100.00
37648;BME280;23490;53.656;10.076;2023-11-22T00:26:38;99928.16;;;-145.95;100.00
37648;BME280;23490;53.656;10.076;2023-11-22T00:29:04;99942.59;;;-145.95;100.00
37648;BME280;23490;53.656;10.076;2023-11-22T00:31:30;99963.25;;;-145.95;100.00
37648;BME280;23490;53.656;10.076;2023-11-22T00:33:55;99928.16;;;-145.95;100.00
37648;BME280;23490;53.656;10.076;2023-11-22T00:36:21;99946.75;;;-145.95;100.00
37648;BME280;23490;53.656;10.076;2023-11-22T00:38:46;99928.16;;;-145.95;100.00
37648;BME280;23490;53.656;10.076;2023-11-22T00:41:11;99938.47;;;-145.95;100.00
37648;BME280;23490;53.656;10.076;2023-11-22T00:43:37;99988.06;;;-145.95;100.00
37648;BME280;23490;53.656;10.076;2023-11-22T00:46:03;99946.75;;;-145.95;100.00
37648;BME280;23490;53.656;10.076;2023-11-22T00:48:28;99965.34;;;-145.95;100.00
37648;BME280;23490;53.656;10.076;2023-11-22T00:50:53;99930.22;;;-145.95;100.00
37648;BME280;23490;53.656;10.076;2023-11-22T00:53:19;99930.22;;;-145.95;100.00
37648;BME280;23490;53.656;10.076;2023-11-22T00:55:44;99950.88;;;-145.95;100.00
37648;BME280;23490;53.656;10.076;2023-11-22T00:58:10;99979.78;;;-145.95;100.00
37648;BME280;23490;53.656;10.076;2023-11-22T01:00:35;100025.22;;;-145.95;100.00
37648;BME280;23490;53.656;10.076;2023-11-22T01:03:01;99998.38;;;-145.95;100.00
37648;BME280;23490;53.656;10.076;2023-11-22T01:05:26;99973.59;;;-145.95;100.00
37648;BME280;23490;53.656;10.076;2023-11-22T01:07:51;99959.13;;;-145.95;100.00
37648;BME280;23490;53.656;10.076;2023-11-22T01:10:17;99996.31;;;-145.95;100.00
37648;BME280;23490;53.656;10.076;2023-11-22T01:12:42;99967.41;;;-145.95;100.00
37648;BME280;23490;53.656;10.076;2023-11-22T01:15:08;99967.41;;;-145.95;100.00
37648;BME280;23490;53.656;10.076;2023-11-22T01:17:34;99963.25;;;-145.95;100.00
37648;BME280;23490;53.656;10.076;2023-11-22T01:20:00;99959.13;;;-145.95;100.00
37648;BME280;23490;53.656;10.076;2023-11-22T01:22:25;99963.25;;;-145.95;100.00
37648;BME280;23490;53.656;10.076;2023-11-22T01:24:51;99983.91;;;-145.95;100.00
37648;BME280;23490;53.656;10.076;2023-11-22T01:27:16;99971.53;;;-145.95;100.00
37648;BME280;23490;53.656;10.076;2023-11-22T01:29:41;99967.41;;;-145.95;100.00
37648;BME280;23490;53.656;10.076;2023-11-22T01:32:07;99979.78;;;-145.95;100.00
37648;BME280;23490;53.656;10.076;2023-11-22T01:34:34;99955.00;;;-145.95;100.00
37648;BME280;23490;53.656;10.076;2023-11-22T01:37:00;99971.53;;;-145.95;100.00
37648;BME280;23490;53.656;10.076;2023-11-22T01:39:25;99994.25;;;-145.95;100.00
37648;BME280;23490;53.656;10.076;2023-11-22T01:41:51;100000.44;;;-145.95;100.00
37648;BME280;23490;53.656;10.076;2023-11-22T01:44:17;100006.63;;;-145.95;100.00
37648;BME280;23490;53.656;10.076;2023-11-22T01:46:43;100014.91;;;-145.95;100.00
37648;BME280;23490;53.656;10.076;2023-11-22T01:49:10;99950.88;;;-145.95;100.00
37648;BME280;23490;53.656;10.076;2023-11-22T01:51:37;100000.44;;;-145.95;100.00
37648;BME280;23490;53.656;10.076;2023-11-22T01:54:03;99990.13;;;-145.95;100.00
37648;BME280;23490;53.656;10.076;2023-11-22T01:56:30;99969.47;;;-145.95;100.00
37648;BME280;23490;53.656;10.076;2023-11-22T01:58:56;100004.56;;;-145.95;100.00
37648;BME280;23490;53.656;10.076;2023-11-22T02:01:22;99988.06;;;-145.95;100.00
37648;BME280;23490;53.656;10.076;2023-11-22T02:03:48;100000.44;;;-145.95;100.00
37648;BME280;23490;53.656;10.076;2023-11-22T02:06:15;99946.75;;;-145.95;100.00
37648;BME280;23490;53.656;10.076;2023-11-22T02:08:44;99967.41;;;-145.95;100.00
37648;BME280;23490;53.656;10.076;2023-11-22T02:11:09;99963.25;;;-145.95;100.00
37648;BME280;23490;53.656;10.076;2023-11-22T02:13:35;99983.91;;;-145.95;100.00
37648;BME280;23490;53.656;10.076;2023-11-22T02:16:02;100004.56;;;-145.95;100.00
37648;BME280;23490;53.656;10.076;2023-11-22T02:18:28;99990.13;;;-145.95;100.00
37648;BME280;23490;53.656;10.076;2023-11-22T02:20:54;100004.56;;;-145.95;100.00
37648;BME280;23490;53.656;10.076;2023-11-22T02:23:20;99971.53;;;-145.95;100.00
37648;BME280;23490;53.656;10.076;2023-11-22T02:25:46;99981.84;;;-145.95;100.00
37648;BME280;23490;53.656;10.076;2023-11-22T02:28:12;99988.06;;;-145.95;100.00
37648;BME280;23490;53.656;10.076;2023-11-22T02:30:37;99975.66;;;-145.95;100.00
37648;BME280;23490;53.656;10.076;2023-11-22T02:33:03;99959.13;;;-145.95;100.00
37648;BME280;23490;53.656;10.076;2023-11-22T02:35:30;99996.31;;;-145.95;100.00
37648;BME280;23490;53.656;10.076;2023-11-22T02:37:58;99988.06;;;-145.95;100.00
37648;BME280;23490;53.656;10.076;2023-11-22T02:40:23;100025.22;;;-145.95;100.00
37648;BME280;23490;53.656;10.076;2023-11-22T02:42:50;100021.09;;;-145.95;100.00
37648;BME280;23490;53.656;10.076;2023-11-22T02:45:17;100002.50;;;-145.95;100.00
37648;BME280;23490;53.656;10.076;2023-11-22T02:47:44;99988.06;;;-145.95;100.00
37648;BME280;23490;53.656;10.076;2023-11-22T02:50:15;99979.78;;;-145.95;100.00
37648;BME280;23490;53.656;10.076;2023-11-22T02:52:41;100025.22;;;-145.95;100.00
37648;BME280;23490;53.656;10.076;2023-11-22T02:55:07;100012.84;;;-145.95;100.00
37648;BME280;23490;53.656;10.076;2023-11-22T02:57:37;100010.78;;;-145.95;100.00
37648;BME280;23490;53.656;10.076;2023-11-22T03:00:07;100021.09;;;-145.95;100.00
37648;BME280;23490;53.656;10.076;2023-11-22T03:02:33;100008.72;;;-145.95;100.00
37648;BME280;23490;53.656;10.076;2023-11-22T03:04:59;100008.72;;;-145.95;100.00
37648;BME280;23490;53.656;10.076;2023-11-22T03:07:25;99992.19;;;-145.95;100.00
37648;BME280;23490;53.656;10.076;2023-11-22T03:09:52;100008.72;;;-145.95;100.00
37648;BME280;23490;53.656;10.076;2023-11-22T03:12:18;100000.44;;;-145.95;100.00
37648;BME280;23490;53.656;10.076;2023-11-22T03:14:48;100000.44;;;-145.95;100.00
37648;BME280;23490;53.656;10.076;2023-11-22T03:17:15;100012.84;;;-145.95;100.00
37648;BME280;23490;53.656;10.076;2023-11-22T03:19:40;100025.22;;;-145.95;100.00
37648;BME280;23490;53.656;10.076;2023-11-22T03:22:06;100035.56;;;-145.95;100.00
37648;BME280;23490;53.656;10.076;2023-11-22T03:24:32;100012.84;;;-145.95;100.00
37648;BME280;23490;53.656;10.076;2023-11-22T03:27:00;100000.44;;;-145.95;100.00
37648;BME280;23490;53.656;10.076;2023-11-22T03:29:26;100004.56;;;-145.95;100.00
37648;BME280;23490;53.656;10.076;2023-11-22T03:31:52;100025.22;;;-145.95;100.00
37648;BME280;23490;53.656;10.076;2023-11-22T03:34:19;100031.44;;;-145.95;100.00
37648;BME280;23490;53.656;10.076;2023-11-22T03:36:44;100027.28;;;-145.95;100.00
37648;BME280;23490;53.656;10.076;2023-11-22T03:39:09;99975.66;;;-145.95;100.00
37648;BME280;23490;53.656;10.076;2023-11-22T03:41:35;100021.09;;;-145.95;100.00
37648;BME280;23490;53.656;10.076;2023-11-22T03:44:06;100000.44;;;-145.95;100.00
37648;BME280;23490;53.656;10.076;2023-11-22T03:46:38;100000.44;;;-145.95;100.00
37648;BME280;23490;53.656;10.076;2023-11-22T03:49:04;100041.75;;;-145.95;100.00
37648;BME280;23490;53.656;10.076;2023-11-22T03:51:30;99985.97;;;-145.95;100.00
37648;BME280;23490;53.656;10.076;2023-11-22T03:53:55;100016.97;;;-145.95;100.00
37648;BME280;23490;53.656;10.076;2023-11-22T03:56:21;100041.75;;;-145.95;100.00
37648;BME280;23490;53.656;10.076;2023-11-22T03:58:46;100002.50;;;-145.95;100.00
37648;BME280;23490;53.656;10.076;2023-11-22T04:01:12;100025.22;;;-145.95;100.00
37648;BME280;23490;53.656;10.076;2023-11-22T04:03:37;99996.31;;;-145.95;100.00
37648;BME280;23490;53.656;10.076;2023-11-22T04:06:03;100002.50;;;-145.95;100.00
37648;BME280;23490;53.656;10.076;2023-11-22T04:08:28;100000.44;;;-145.95;100.00
37648;BME280;23490;53.656;10.076;2023-11-22T04:10:53;100027.28;;;-145.95;100.00
37648;BME280;23490;53.656;10.076;2023-11-22T04:13:19;100045.88;;;-145.95;100.00
37648;BME280;23490;53.656;10.076;2023-11-22T04:15:44;99988.06;;;-145.95;100.00
37648;BME280;23490;53.656;10.076;2023-11-22T04:18:10;100008.72;;;-145.95;100.00
37648;BME280;23490;53.656;10.076;2023-11-22T04:20:35;100000.44;;;-145.95;100.00
37648;BME280;23490;53.656;10.076;2023-11-22T04:23:01;100021.09;;;-145.95;100.00
37648;BME280;23490;53.656;10.076;2023-11-22T04:25:26;100025.22;;;-145.95;100.00
37648;BME280;23490;53.656;10.076;2023-11-22T04:27:52;100006.63;;;-145.95;100.00
37648;BME280;23490;53.656;10.076;2023-11-22T04:30:18;100004.56;;;-145.95;100.00
37648;BME280;23490;53.656;10.076;2023-11-22T04:32:43;100008.72;;;-145.95;100.00
37648;BME280;23490;53.656;10.076;2023-11-22T04:35:09;100047.94;;;-145.95;100.00
37648;BME280;23490;53.656;10.076;2023-11-22T04:37:35;100050.03;;;-145.95;100.00
37648;BME280;23490;53.656;10.076;2023-11-22T04:40:01;100043.81;;;-145.95;100.00
37648;BME280;23490;53.656;10.076;2023-11-22T04:42:28;100058.28;;;-145.95;100.00
37648;BME280;23490;53.656;10.076;2023-11-22T04:44:54;100000.44;;;-145.95;100.00
37648;BME280;23490;53.656;10.076;2023-11-22T04:47:20;100029.38;;;-145.95;100.00
37648;BME280;23490;53.656;10.076;2023-11-22T04:49:47;100000.44;;;-145.95;100.00
37648;BME280;23490;53.656;10.076;2023-11-22T04:52:13;100041.75;;;-145.95;100.00
37648;BME280;23490;53.656;10.076;2023-11-22T04:54:38;100033.50;;;-145.95;100.00
37648;BME280;23490;53.656;10.076;2023-11-22T04:57:03;100012.84;;;-145.95;100.00
37648;BME280;23490;53.656;10.076;2023-11-22T04:59:29;100010.78;;;-145.95;100.00
37648;BME280;23490;53.656;10.076;2023-11-22T05:01:55;100029.38;;;-145.95;100.00
37648;BME280;23490;53.656;10.076;2023-11-22T05:04:21;100021.09;;;-145.95;100.00
37648;BME280;23490;53.656;10.076;2023-11-22T05:06:46;100012.84;;;-145.95;100.00
37648;BME280;23490;53.656;10.076;2023-11-22T05:09:11;100033.50;;;-145.95;100.00
37648;BME280;23490;53.656;10.076;2023-11-22T05:11:38;99977.72;;;-145.95;100.00
37648;BME280;23490;53.656;10.076;2023-11-22T05:14:06;100021.09;;;-145.95;100.00
37648;BME280;23490;53.656;10.076;2023-11-22T05:16:32;100016.97;;;-145.95;100.00
37648;BME280;23490;53.656;10.076;2023-11-22T05:18:59;100043.81;;;-145.95;100.00
37648;BME280;23490;53.656;10.076;2023-11-22T05:21:24;100050.03;;;-145.95;100.00
37648;BME280;23490;53.656;10.076;2023-11-22T05:23:49;100008.72;;;-145.95;100.00
37648;BME280;23490;53.656;10.076;2023-11-22T05:26:15;100037.63;;;-145.95;100.00
37648;BME280;23490;53.656;10.076;2023-11-22T05:28:40;100050.03;;;-145.95;100.00
37648;BME280;23490;53.656;10.076;2023-11-22T05:31:05;100056.22;;;-145.95;100.00
37648;BME280;23490;53.656;10.076;2023-11-22T05:33:31;100033.50;;;-145.95;100.00
37648;BME280;23490;53.656;10.076;2023-11-22T05:35:57;100027.28;;;-145.95;100.00
37648;BME280;23490;53.656;10.076;2023-11-22T05:38:22;100041.75;;;-145.95;100.00
37648;BME280;23490;53.656;10.076;2023-11-22T05:40:48;100037.63;;;-145.95;100.00
37648;BME280;23490;53.656;10.076;2023-11-22T05:43:14;100045.88;;;-145.95;100.00
37648;BME280;23490;53.656;10.076;2023-11-22T05:45:39;100019.03;;;-145.95;100.00
37648;BME280;23490;53.656;10.076;2023-11-22T05:48:04;100033.50;;;-145.95;100.00
37648;BME280;23490;53.656;10.076;2023-11-22T05:50:30;100058.28;;;-145.95;100.00
37648;BME280;23490;53.656;10.076;2023-11-22T05:52:55;100025.22;;;-145.95;100.00
37648;BME280;23490;53.656;10.076;2023-11-22T05:55:22;100041.75;;;-145.95;100.00
37648;BME280;23490;53.656;10.076;2023-11-22T05:57:48;100035.56;;;-145.95;100.00
37648;BME280;23490;53.656;10.076;2023-11-22T06:00:13;100021.09;;;-145.95;100.00
37648;BME280;23490;53.656;10.076;2023-11-22T06:02:42;100050.03;;;-145.95;100.00
37648;BME280;23490;53.656;10.076;2023-11-22T06:05:07;100016.97;;;-145.95;100.00
37648;BME280;23490;53.656;10.076;2023-11-22T06:07:32;100037.63;;;-145.95;100.00
37648;BME280;23490;53.656;10.076;2023-11-22T06:09:58;100041.75;;;-145.95;100.00
37648;BME280;23490;53.656;10.076;2023-11-22T06:12:24;100033.50;;;-145.95;100.00
37648;BME280;23490;53.656;10.076;2023-11-22T06:14:49;100064.47;;;-145.95;100.00
37648;BME280;23490;53.656;10.076;2023-11-22T06:17:14;100078.94;;;-145.95;100.00
37648;BME280;23490;53.656;10.076;2023-11-22T06:19:40;99979.78;;;-145.95;100.00
37648;BME280;23490;53.656;10.076;2023-11-22T06:22:06;100033.50;;;-145.95;100.00
37648;BME280;23490;53.656;10.076;2023-11-22T06:24:32;100037.63;;;-145.95;100.00
37648;BME280;23490;53.656;10.076;2023-11-22T06:26:59;100033.50;;;-145.95;100.00
37648;BME280;23490;53.656;10.076;2023-11-22T06:29:24;100029.38;;;-145.95;100.00
37648;BME280;23490;53.656;10.076;2023-11-22T06:31:49;100078.94;;;-145.95;100.00
37648;BME280;23490;53.656;10.076;2023-11-22T06:34:15;100039.69;;;-145.95;100.00
37648;BME280;23490;53.656;10.076;2023-11-22T06:36:40;100078.94;;;-145.95;100.00
37648;BME280;23490;53.656;10.076;2023-11-22T06:39:06;100045.88;;;-145.95;100.00
37648;BME280;23490;53.656;10.076;2023-11-22T06:41:34;100000.44;;;-145.95;100.00
37648;BME280;23490;53.656;10.076;2023-11-22T06:43:59;100037.63;;;-145.95;100.00
37648;BME280;23490;53.656;10.076;2023-11-22T06:46:24;100031.44;;;-145.95;100.00
37648;BME280;23490;53.656;10.076;2023-11-22T06:48:50;100050.03;;;-145.95;100.00
37648;BME280;23490;53.656;10.076;2023-11-22T06:51:15;100033.50;;;-145.95;100.00
37648;BME280;23490;53.656;10.076;2023-11-22T06:53:41;100019.03;;;-145.95;100.00
37648;BME280;23490;53.656;10.076;2023-11-22T06:56:06;100041.75;;;-145.95;100.00
37648;BME280;23490;53.656;10.076;2023-11-22T06:58:32;100037.63;;;-145.95;100.00
37648;BME280;23490;53.656;10.076;2023-11-22T07:00:57;100037.63;;;-145.95;100.00
37648;BME280;23490;53.656;10.076;2023-11-22T07:03:23;100081.00;;;-145.95;100.00
37648;BME280;23490;53.656;10.076;2023-11-22T07:05:48;99992.19;;;-145.95;100.00
37648;BME280;23490;53.656;10.076;2023-11-22T07:08:13;100008.72;;;-145.95;100.00
37648;BME280;23490;53.656;10.076;2023-11-22T07:10:41;100004.56;;;-145.95;100.00
37648;BME280;23490;53.656;10.076;2023-11-22T07:13:07;100054.16;;;-145.95;100.00
37648;BME280;23490;53.656;10.076;2023-11-22T07:15:32;100000.44;;;-145.95;100.00
37648;BME280;23490;53.656;10.076;2023-11-22T07:17:57;100000.44;;;-145.95;100.00
37648;BME280;23490;53.656;10.076;2023-11-22T07:20:23;100004.56;;;-145.95;100.00
37648;BME280;23490;53.656;10.076;2023-11-22T07:22:49;100050.03;;;-145.95;100.00
37648;BME280;23490;53.656;10.076;2023-11-22T07:25:20;100025.22;;;-145.95;100.00
37648;BME280;23490;53.656;10.076;2023-11-22T07:27:46;100041.75;;;-145.95;100.00
37648;BME280;23490;53.656;10.076;2023-11-22T07:30:15;99992.19;;;-145.95;100.00
37648;BME280;23490;53.656;10.076;2023-11-22T07:32:41;100006.63;;;-145.95;100.00
37648;BME280;23490;53.656;10.076;2023-11-22T07:35:07;100008.72;;;-145.95;100.00
37648;BME280;23490;53.656;10.076;2023-11-22T07:37:37;99983.91;;;-145.95;100.00
37648;BME280;23490;53.656;10.076;2023-11-22T07:40:08;99981.84;;;-145.95;100.00
37648;BME280;23490;53.656;10.076;2023-11-22T07:42:34;100025.22;;;-145.95;100.00
37648;BME280;23490;53.656;10.076;2023-11-22T07:45:00;100021.09;;;-145.95;100.00
37648;BME280;23490;53.656;10.076;2023-11-22T07:47:26;100014.91;;;-145.95;100.00
37648;BME280;23490;53.656;10.076;2023-11-22T07:49:52;100000.44;;;-145.95;100.00
37648;BME280;23490;53.656;10.076;2023-11-22T07:52:17;99963.25;;;-145.95;100.00
37648;BME280;23490;53.656;10.076;2023-11-22T07:54:43;100000.44;;;-145.95;100.00
37648;BME280;23490;53.656;10.076;2023-11-22T07:57:09;99988.06;;;-145.95;100.00
37648;BME280;23490;53.656;10.076;2023-11-22T07:59:35;100012.84;;;-145.95;100.00
37648;BME280;23490;53.656;10.076;2023-11-22T08:02:02;100006.63;;;-145.95;100.00
37648;BME280;23490;53.656;10.076;2023-11-22T08:04:27;99996.31;;;-145.95;100.00
37648;BME280;23490;53.656;10.076;2023-11-22T08:06:57;99959.13;;;-145.95;100.00
37648;BME280;23490;53.656;10.076;2023-11-22T08:09:23;99996.31;;;-145.95;100.00
37648;BME280;23490;53.656;10.076;2023-11-22T08:11:49;99971.53;;;-145.95;100.00
37648;BME280;23490;53.656;10.076;2023-11-22T08:14:15;99973.59;;;-145.95;100.00
37648;BME280;23490;53.656;10.076;2023-11-22T08:16:41;99990.13;;;-145.95;100.00
37648;BME280;23490;53.656;10.076;2023-11-22T08:19:08;99955.00;;;-145.95;100.00
37648;BME280;23490;53.656;10.076;2023-11-22T08:21:34;99967.41;;;-145.95;100.00
37648;BME280;23490;53.656;10.076;2023-11-22T08:23:59;99973.59;;;-145.95;100.00
37648;BME280;23490;53.656;10.076;2023-11-22T08:26:25;99996.31;;;-145.95;100.00
37648;BME280;23490;53.656;10.076;2023-11-22T08:28:55;99967.41;;;-145.95;100.00
37648;BME280;23490;53.656;10.076;2023-11-22T08:31:20;99983.91;;;-145.95;100.00
37648;BME280;23490;53.656;10.076;2023-11-22T08:33:46;99988.06;;;-145.95;100.00
37648;BME280;23490;53.656;10.076;2023-11-22T08:36:11;99917.81;;;-145.95;100.00
37648;BME280;23490;53.656;10.076;2023-11-22T08:38:37;99971.53;;;-145.95;100.00
37648;BME280;23490;53.656;10.076;2023-11-22T08:41:07;99934.34;;;-145.95;100.00
37648;BME280;23490;53.656;10.076;2023-11-22T08:43:33;99973.59;;;-145.95;100.00
37648;BME280;23490;53.656;10.076;2023-11-22T08:46:00;99988.06;;;-145.95;100.00
37648;BME280;23490;53.656;10.076;2023-11-22T08:48:26;99959.13;;;-145.95;100.00
37648;BME280;23490;53.656;10.076;2023-11-22T08:50:51;99979.78;;;-145.95;100.00
37648;BME280;23490;53.656;10.076;2023-11-22T08:53:19;99946.75;;;-145.95;100.00
37648;BME280;23490;53.656;10.076;2023-11-22T08:55:45;99944.69;;;-145.95;100.00
37648;BME280;23490;53.656;10.076;2023-11-22T08:58:11;99934.34;;;-145.95;100.00
37648;BME280;23490;53.656;10.076;2023-11-22T09:00:36;99940.53;;;-145.95;100.00
37648;BME280;23490;53.656;10.076;2023-11-22T09:03:02;99950.88;;;-145.95;100.00
37648;BME280;23490;53.656;10.076;2023-11-22T09:05:28;99965.34;;;-145.95;100.00
37648;BME280;23490;53.656;10.076;2023-11-22T09:07:54;99983.91;;;-145.95;100.00
37648;BME280;23490;53.656;10.076;2023-11-22T09:10:21;99944.69;;;-145.95;100.00
37648;BME280;23490;53.656;10.076;2023-11-22T09:12:47;99950.88;;;-145.95;100.00
37648;BME280;23490;53.656;10.076;2023-11-22T09:15:13;99917.81;;;-145.95;100.00
37648;BME280;23490;53.656;10.076;2023-11-22T09:17:42;99924.03;;;-145.95;100.00
37648;BME280;23490;53.656;10.076;2023-11-22T09:20:18;99934.34;;;-145.95;100.00
37648;BME280;23490;53.656;10.076;2023-11-22T09:22:49;99967.41;;;-145.95;100.00
37648;BME280;23490;53.656;10.076;2023-11-22T09:25:21;99884.78;;;-145.95;100.00
37648;BME280;23490;53.656;10.076;2023-11-22T09:27:49;99940.53;;;-145.95;100.00
37648;BME280;23490;53.656;10.076;2023-11-22T09:30:19;99909.56;;;-145.95;100.00
37648;BME280;23490;53.656;10.076;2023-11-22T09:33:01;99921.94;;;-145.95;100.00
37648;BME280;23490;53.656;10.076;2023-11-22T09:35:27;99909.56;;;-145.95;100.00
37648;BME280;23490;53.656;10.076;2023-11-22T09:37:55;99952.94;;;-145.95;100.00
37648;BME280;23490;53.656;10.076;2023-11-22T09:40:21;99888.91;;;-145.95;100.00
37648;BME280;23490;53.656;10.076;2023-11-22T09:42:47;99851.72;;;-145.95;100.00
37648;BME280;23490;53.656;10.076;2023-11-22T09:45:17;99917.81;;;-145.95;100.00
37648;BME280;23490;53.656;10.076;2023-11-22T09:47:43;99905.44;;;-145.95;100.00
37648;BME280;23490;53.656;10.076;2023-11-22T09:50:30;99868.25;;;-145.95;100.00
37648;BME280;23490;53.656;10.076;2023-11-22T09:53:00;99909.56;;;-145.95;100.00
37648;BME280;23490;53.656;10.076;2023-11-22T09:55:28;99897.16;;;-145.95;100.00
37648;BME280;23490;53.656;10.076;2023-11-22T09:57:55;99872.38;;;-145.95;100.00
37648;BME280;23490;53.656;10.076;2023-11-22T10:00:22;99911.63;;;-145.95;100.00
37648;BME280;23490;53.656;10.076;2023-11-22T10:02:50;99874.44;;;-145.95;100.00
37648;BME280;23490;53.656;10.076;2023-11-22T10:05:15;99872.38;;;-145.95;100.00
37648;BME280;23490;53.656;10.076;2023-11-22T10:07:41;99897.16;;;-145.95;100.00
37648;BME280;23490;53.656;10.076;2023-11-22T10:10:06;99855.84;;;-145.95;100.00
37648;BME280;23490;53.656;10.076;2023-11-22T10:12:32;99853.78;;;-145.95;100.00
37648;BME280;23490;53.656;10.076;2023-11-22T10:15:17;99886.84;;;-145.95;100.00
37648;BME280;23490;53.656;10.076;2023-11-22T10:18:08;99872.38;;;-145.95;100.00
37648;BME280;23490;53.656;10.076;2023-11-22T10:20:38;99886.84;;;-145.95;100.00
37648;BME280;23490;53.656;10.076;2023-11-22T10:23:11;99864.13;;;-145.95;100.00
37648;BME280;23490;53.656;10.076;2023-11-22T10:25:43;99876.50;;;-145.95;100.00
37648;BME280;23490;53.656;10.076;2023-11-22T10:28:08;99857.94;;;-145.95;100.00
37648;BME280;23490;53.656;10.076;2023-11-22T10:30:34;99804.22;;;-145.95;100.00
37648;BME280;23490;53.656;10.076;2023-11-22T10:33:01;99884.78;;;-145.95;100.00
37648;BME280;23490;53.656;10.076;2023-11-22T10:35:27;99847.59;;;-145.95;100.00
37648;BME280;23490;53.656;10.076;2023-11-22T10:37:52;99864.13;;;-145.95;100.00
37648;BME280;23490;53.656;10.076;2023-11-22T10:40:18;99826.94;;;-145.95;100.00
37648;BME280;23490;53.656;10.076;2023-11-22T10:42:44;99826.94;;;-145.95;100.00
37648;BME280;23490;53.656;10.076;2023-11-22T10:45:14;99843.47;;;-145.95;100.00
37648;BME280;23490;53.656;10.076;2023-11-22T10:47:42;99839.34;;;-145.95;100.00
37648;BME280;23490;53.656;10.076;2023-11-22T10:50:08;99831.06;;;-145.95;100.00
37648;BME280;23490;53.656;10.076;2023-11-22T10:52:35;99826.94;;;-145.95;100.00
37648;BME280;23490;53.656;10.076;2023-11-22T10:55:05;99843.47;;;-145.95;100.00
37648;BME280;23490;53.656;10.076;2023-11-22T10:57:35;99868.25;;;-145.95;100.00
37648;BME280;23490;53.656;10.076;2023-11-22T11:00:03;99814.56;;;-145.95;100.00
37648;BME280;23490;53.656;10.076;2023-11-22T11:02:46;99810.41;;;-145.95;100.00
37648;BME280;23490;53.656;10.076;2023-11-22T11:05:21;99798.03;;;-145.95;100.00
37648;BME280;23490;53.656;10.076;2023-11-22T11:10:43;99814.56;;;-145.95;100.00
37648;BME280;23490;53.656;10.076;2023-11-22T11:13:10;99814.56;;;-145.95;100.00
37648;BME280;23490;53.656;10.076;2023-11-22T11:15:41;99808.34;;;-145.95;100.00
37648;BME280;23490;53.656;10.076;2023-11-22T11:18:13;99798.03;;;-145.95;100.00
37648;BME280;23490;53.656;10.076;2023-11-22T11:23:15;99795.97;;;-145.95;100.00
37648;BME280;23490;53.656;10.076;2023-11-22T11:25:44;99810.41;;;-145.95;100.00
37648;BME280;23490;53.656;10.076;2023-11-22T11:28:12;99793.91;;;-145.95;100.00
37648;BME280;23490;53.656;10.076;2023-11-22T11:33:12;99773.25;;;-145.95;100.00
37648;BME280;23490;53.656;10.076;2023-11-22T11:35:49;99777.38;;;-145.95;100.00
37648;BME280;23490;53.656;10.076;2023-11-22T11:38:18;99818.69;;;-145.95;97.52
37648;BME280;23490;53.656;10.076;2023-11-22T11:40:48;99777.38;;;-145.95;100.00
37648;BME280;23490;53.656;10.076;2023-11-22T11:43:15;99756.72;;;-145.95;100.00
37648;BME280;23490;53.656;10.076;2023-11-22T11:45:42;99785.63;;;-145.95;98.41
37648;BME280;23490;53.656;10.076;2023-11-22T11:48:16;99789.75;;;-145.95;98.60
37648;BME280;23490;53.656;10.076;2023-11-22T11:50:42;99756.72;;;-145.95;98.88
37648;BME280;23490;53.656;10.076;2023-11-22T11:53:09;99760.84;;;-145.95;98.10
37648;BME280;23490;53.656;10.076;2023-11-22T11:55:36;99752.59;;;-145.95;97.17
37648;BME280;23490;53.656;10.076;2023-11-22T11:58:08;99727.81;;;-145.95;95.75
37648;BME280;23490;53.656;10.076;2023-11-22T12:00:37;99789.75;;;-145.95;96.04
37648;BME280;23490;53.656;10.076;2023-11-22T12:03:07;99752.59;;;-145.95;94.83
37648;BME280;23490;53.656;10.076;2023-11-22T12:05:35;99789.75;;;-145.95;93.03
37648;BME280;23490;53.656;10.076;2023-11-22T12:08:00;99752.59;;;-145.95;94.05
37648;BME280;23490;53.656;10.076;2023-11-22T12:10:25;99777.38;;;-145.95;91.39
37648;BME280;23490;53.656;10.076;2023-11-22T12:12:52;99781.50;;;-145.95;89.51
37648;BME280;23490;53.656;10.076;2023-11-22T12:15:18;99736.06;;;-145.95;87.22
37648;BME280;23490;53.656;10.076;2023-11-22T12:17:44;99775.31;;;-145.95;86.56
37648;BME280;23490;53.656;10.076;2023-11-22T12:20:15;99758.78;;;-145.95;87.27
37648;BME280;23490;53.656;10.076;2023-11-22T12:22:43;99789.75;;;-145.95;87.80
37648;BME280;23490;53.656;10.076;2023-11-22T12:25:10;99746.38;;;-145.95;86.88